EW3732 Weather Reports


Display with metric or nautical units.
time (UTC)temp
F
wind
direction
speed
MPH
gust
MPH
rain 1hr
in
rain 24hr
in
rain mn
in
humidity
%
barometer
mb
20180814211915 83 166 0.0 2.0 0.00 0.15 0.00 30 1011.7
20180814210410 83 88 0.0 6.0 0.00 0.15 0.00 35 1011.9
20180814204905 82 263 0.0 1.0 0.00 0.15 0.00 32 1012.1
20180814203410 83 223 0.0 0.0 0.00 0.15 0.00 35 1012.2
20180814201905 81 300 0.0 0.0 0.00 0.15 0.00 35 1012.4
20180814200401 80 146 0.0 3.0 0.00 0.15 0.00 34 1012.5
20180814194856 80 171 0.0 5.0 0.00 0.15 0.00 36 1012.7
20180814193353 79 33 0.0 0.0 0.00 0.15 0.00 38 1013.0
20180814191848 77 99 0.0 0.0 0.00 0.15 0.00 38 1013.0
20180814190347 75 178 0.0 0.0 0.00 0.15 0.00 43 1013.1
20180814184838 74 136 0.0 2.0 0.00 0.15 0.00 45 1013.4
20180814183336 73 67 0.0 0.0 0.00 0.15 0.00 50 1013.5
20180814181835 71 48 0.0 0.0 0.00 0.15 0.00 53 1013.7
20180814180327 70 175 0.0 0.0 0.00 0.15 0.00 57 1013.9
20180814174822 69 128 0.0 0.0 0.00 0.15 0.00 58 1014.1
20180814173321 67 30 0.0 0.0 0.00 0.15 0.00 63 1014.2
20180814171815 66 30 0.0 0.0 0.00 0.15 0.00 66 1014.4
20180814170311 64 30 0.0 0.0 0.00 0.15 0.00 67 1014.5
20180814164807 63 244 0.0 0.0 0.00 0.15 0.00 70 1014.6
20180814163302 61 244 0.0 0.0 0.00 0.15 0.00 75 1014.7
20180814161800 60 232 0.0 0.0 0.00 0.15 0.00 78 1014.8
20180814160254 58 232 0.0 0.0 0.00 0.15 0.00 83 1014.9
20180814154749 56 232 0.0 0.0 0.00 0.15 0.00 84 1015.1
20180814153249 54 229 0.0 0.0 0.00 0.15 0.00 87 1015.2
20180814151744 52 229 0.0 0.0 0.00 0.15 0.00 89 1015.1
20180814150245 50 230 0.0 0.0 0.00 0.15 0.00 94 1015.1
20180814144743 48 230 0.0 0.0 0.00 0.15 0.00 96 1015.1
20180814143242 47 230 0.0 0.0 0.00 0.15 0.00 96 1015.2
20180814141740 46 230 0.0 0.0 0.00 0.15 0.00 96 1015.0
20180814140240 46 230 0.0 0.0 0.00 0.15 0.00 95 1015.0
20180814134738 45 230 0.0 0.0 0.00 0.15 0.00 95 1014.9
20180814133236 45 230 0.0 0.0 0.00 0.15 0.00 94 1014.8
20180814131735 45 230 0.0 0.0 0.00 0.15 0.00 94 1014.8
20180814130234 46 229 0.0 0.0 0.00 0.15 0.00 94 1014.7
20180814124732 46 230 0.0 0.0 0.00 0.15 0.00 94 1014.7
20180814123231 46 230 0.0 0.0 0.00 0.15 0.00 94 1014.7
20180814121729 46 230 0.0 0.0 0.00 0.15 0.00 93 1014.7
20180814120228 47 230 0.0 0.0 0.00 0.15 0.00 93 1014.6
20180814114725 47 230 0.0 0.0 0.00 0.15 0.00 93 1014.7
20180814113224 47 229 0.0 0.0 0.00 0.15 0.00 93 1014.7
20180814111722 48 230 0.0 0.0 0.00 0.15 0.00 92 1014.8
20180814110224 48 230 0.0 0.0 0.00 0.15 0.00 92 1014.7
20180814104718 48 230 0.0 0.0 0.00 0.15 0.00 92 1014.8
20180814103217 48 230 0.0 0.0 0.00 0.15 0.00 91 1014.8
20180814101715 49 230 0.0 0.0 0.00 0.15 0.00 91 1014.7
20180814100214 49 230 0.0 0.0 0.00 0.16 0.00 90 1014.8
20180814094713 50 230 0.0 0.0 0.00 0.16 0.00 89 1014.8
20180814093211 50 229 0.0 0.0 0.00 0.16 0.00 89 1014.9
20180814091707 50 230 0.0 0.0 0.00 0.16 0.00 88 1014.9
20180814090205 51 230 0.0 0.0 0.00 0.16 0.00 87 1014.8
20180814084703 51 230 0.0 0.0 0.00 0.16 0.00 88 1014.9
20180814083201 52 229 0.0 0.0 0.00 0.16 0.00 87 1015.0
20180814081701 52 230 0.0 0.0 0.00 0.16 0.00 86 1014.9
20180814080200 53 230 0.0 0.0 0.00 0.16 0.00 85 1014.8
20180814074656 53 230 0.0 0.0 0.00 0.16 0.00 83 1014.7
20180814073156 54 230 0.0 0.0 0.00 0.16 0.00 83 1014.6
20180814071650 54 230 0.0 0.0 0.00 0.16 0.00 82 1014.6
20180814070148 54 230 0.0 0.0 0.00 0.16 0.16 81 1014.6
20180814064648 55 230 0.0 0.0 0.00 0.16 0.16 79 1014.5
20180814063147 56 230 0.0 0.0 0.00 0.16 0.16 78 1014.5
20180814061649 56 230 0.0 0.0 0.00 0.16 0.16 78 1014.4
20180814060151 56 230 0.0 0.0 0.00 0.16 0.16 79 1014.4
20180814054647 57 230 0.0 0.0 0.00 0.16 0.16 76 1014.4
20180814053145 58 230 0.0 0.0 0.00 0.16 0.16 73 1014.3
20180814051644 58 230 0.0 0.0 0.00 0.16 0.16 72 1014.4
20180814050145 59 224 0.0 0.0 0.02 0.17 0.16 73 1014.3
20180814044644 59 224 0.0 0.0 0.04 0.17 0.16 71 1014.3
20180814043145 60 207 0.0 0.0 0.07 0.17 0.16 71 1014.1
20180814041644 61 207 0.0 0.0 0.09 0.17 0.16 71 1013.9
20180814040143 62 206 0.0 0.0 0.10 0.18 0.14 70 1013.8
20180814034641 63 206 0.0 0.0 0.11 0.16 0.12 71 1013.4
20180814033141 65 207 0.0 0.0 0.08 0.13 0.09 66 1013.4
20180814031643 67 207 0.0 0.0 0.06 0.11 0.07 62 1013.4
20180814030140 71 207 0.0 1.0 0.03 0.09 0.04 54 1013.2
20180814024638 74 207 0.0 0.0 0.00 0.06 0.01 46 1013.2
20180814023138 76 207 0.0 0.0 0.00 0.06 0.01 40 1013.1
20180814021640 78 207 0.0 0.0 0.00 0.06 0.01 37 1013.1
20180814020136 80 207 0.0 0.0 0.00 0.06 0.01 35 1013.1
20180814014637 81 207 0.0 0.0 0.00 0.06 0.01 33 1013.2
20180814013134 82 207 0.0 0.0 0.00 0.06 0.01 30 1013.2
20180814011631 83 203 0.0 0.0 0.00 0.06 0.01 29 1013.3
20180814010145 83 53 0.0 1.0 0.00 0.06 0.01 29 1013.3
20180814004651 83 193 0.0 1.0 0.00 0.06 0.01 28 1013.3
20180814003209 83 244 0.0 0.0 0.00 0.06 0.01 31 1013.5
20180814001635 84 142 0.0 2.0 0.00 0.06 0.01 28 1013.7
20180814000200 84 101 0.0 1.0 0.00 0.06 0.01 28 1013.9
20180813234617 84 188 0.0 2.0 0.00 0.06 0.01 29 1014.0
20180813233116 84 189 0.0 3.0 0.00 0.06 0.01 28 1014.1
20180813231613 84 252 0.0 3.0 0.00 0.06 0.01 28 1014.3
20180813230110 83 157 0.0 2.0 0.00 0.06 0.01 29 1014.5
20180813224700 84 66 0.0 2.0 0.00 0.06 0.01 29 1014.7
20180813223106 83 127 0.0 8.0 0.00 0.06 0.01 29 1014.9
20180813221614 83 355 0.0 4.0 0.00 0.06 0.01 28 1015.0
20180813220104 82 107 0.0 3.0 0.00 0.06 0.01 31 1015.2
20180813214600 82 69 0.0 4.0 0.00 0.06 0.01 29 1015.4